createdAt,value
2022-12-24T00:01:16.511Z,5.06
2022-12-24T00:04:03.363Z,5.14
2022-12-24T00:06:51.498Z,5.08
2022-12-24T00:09:38.323Z,5.17
2022-12-24T00:12:26.122Z,5.12
2022-12-24T00:15:13.155Z,5.02
2022-12-24T00:17:59.622Z,5.03
2022-12-24T00:20:48.162Z,5.00
2022-12-24T00:23:36.151Z,4.96
2022-12-24T00:26:22.896Z,4.92
2022-12-24T00:29:10.416Z,4.83
2022-12-24T00:31:57.100Z,4.85
2022-12-24T00:34:43.879Z,4.76
2022-12-24T00:37:31.323Z,4.82
2022-12-24T00:40:20.909Z,4.81
2022-12-24T00:43:07.429Z,4.89
2022-12-24T00:45:54.246Z,5.03
2022-12-24T00:48:41.018Z,4.96
2022-12-24T00:51:28.450Z,4.81
2022-12-24T00:54:15.909Z,4.87
2022-12-24T00:57:04.130Z,4.84
2022-12-24T00:59:51.039Z,4.99
2022-12-24T01:02:38.113Z,5.01
2022-12-24T01:05:24.836Z,4.84
2022-12-24T01:08:12.043Z,4.85
2022-12-24T01:10:59.118Z,4.81
2022-12-24T01:13:46.916Z,4.86
2022-12-24T01:16:33.878Z,4.89
2022-12-24T01:19:20.772Z,4.93
2022-12-24T01:22:07.582Z,4.95
2022-12-24T01:24:54.362Z,4.89
2022-12-24T01:27:41.727Z,4.71
2022-12-24T01:30:30.140Z,4.89
2022-12-24T01:33:17.431Z,4.82
2022-12-24T01:36:04.435Z,4.98
2022-12-24T01:38:51.013Z,4.88
2022-12-24T01:41:55.681Z,4.99
2022-12-24T01:44:44.503Z,5.02
2022-12-24T01:47:32.690Z,5.06
2022-12-24T01:50:19.651Z,5.06
2022-12-24T01:53:07.862Z,4.90
2022-12-24T01:55:56.109Z,4.83
2022-12-24T01:58:47.918Z,4.87
2022-12-24T02:01:34.871Z,4.85
2022-12-24T02:04:31.199Z,4.87
2022-12-24T02:07:17.886Z,4.79
2022-12-24T02:10:06.252Z,4.94
2022-12-24T02:12:53.806Z,4.92
2022-12-24T02:15:57.518Z,4.83
2022-12-24T02:18:54.619Z,4.92
2022-12-24T02:21:51.833Z,5.03
2022-12-24T02:25:03.827Z,5.09
2022-12-24T02:27:58.968Z,4.91
2022-12-24T02:30:51.753Z,4.98
2022-12-24T02:33:44.968Z,5.06
2022-12-24T02:36:35.962Z,4.97
2022-12-24T02:39:28.899Z,4.99
2022-12-24T02:42:20.126Z,5.03
2022-12-24T02:45:11.189Z,4.73
2022-12-24T02:48:00.084Z,4.97
2022-12-24T02:51:07.305Z,5.04
2022-12-24T02:53:54.060Z,5.01
2022-12-24T02:57:02.290Z,5.00
2022-12-24T03:00:01.494Z,4.99
2022-12-24T03:07:08.303Z,4.96
2022-12-24T03:10:08.973Z,4.89
2022-12-24T03:12:59.912Z,5.06
2022-12-24T03:15:48.494Z,4.84
2022-12-24T03:18:35.313Z,4.91
2022-12-24T03:21:25.304Z,4.89
2022-12-24T03:24:13.471Z,4.92
2022-12-24T03:27:01.219Z,4.79
2022-12-24T03:29:48.195Z,4.86
2022-12-24T03:32:35.934Z,4.75
2022-12-24T03:35:22.901Z,4.77
2022-12-24T03:38:09.375Z,4.77
2022-12-24T03:40:57.516Z,4.77
2022-12-24T03:43:44.003Z,4.82
2022-12-24T03:46:30.850Z,4.83
2022-12-24T03:49:17.611Z,4.86
2022-12-24T03:52:05.876Z,4.73
2022-12-24T03:54:52.713Z,4.84
2022-12-24T03:57:41.027Z,4.84
2022-12-24T04:00:27.971Z,4.66
2022-12-24T04:03:14.708Z,4.69
2022-12-24T04:06:03.703Z,4.75
2022-12-24T04:08:50.439Z,4.70
2022-12-24T04:11:37.365Z,4.67
2022-12-24T04:14:25.518Z,4.81
2022-12-24T04:17:12.347Z,4.89
2022-12-24T04:19:59.086Z,4.91
2022-12-24T04:22:45.786Z,4.71
2022-12-24T04:25:32.568Z,4.61
2022-12-24T04:28:19.841Z,4.57
2022-12-24T04:31:10.170Z,4.52
2022-12-24T04:33:57.007Z,4.54
2022-12-24T04:36:43.864Z,4.67
2022-12-24T04:39:30.472Z,4.58
2022-12-24T04:42:16.955Z,4.53
2022-12-24T04:45:03.818Z,4.66
2022-12-24T04:47:52.004Z,4.59
2022-12-24T04:50:38.751Z,4.53
2022-12-24T04:53:25.673Z,4.54
2022-12-24T04:56:15.370Z,4.54
2022-12-24T04:59:02.580Z,4.55
2022-12-24T05:01:49.059Z,4.66
2022-12-24T05:04:37.868Z,4.54
2022-12-24T05:07:24.812Z,4.51
2022-12-24T05:10:12.231Z,4.46
2022-12-24T05:12:58.895Z,4.48
2022-12-24T05:15:46.269Z,4.45
2022-12-24T05:18:33.974Z,4.42
2022-12-24T05:21:25.293Z,4.44
2022-12-24T05:24:30.375Z,4.46
2022-12-24T05:27:17.102Z,4.47
2022-12-24T05:30:05.914Z,4.40
2022-12-24T05:32:52.707Z,4.39
2022-12-24T05:35:39.569Z,4.40
2022-12-24T05:38:27.810Z,4.35
2022-12-24T05:41:14.558Z,4.32
2022-12-24T05:44:01.091Z,4.27
2022-12-24T05:46:48.122Z,4.29
2022-12-24T05:49:34.963Z,4.26
2022-12-24T05:52:21.736Z,4.23
2022-12-24T05:55:11.237Z,4.17
2022-12-24T05:57:57.937Z,4.14
2022-12-24T06:00:44.795Z,4.16
2022-12-24T06:03:31.671Z,4.17
2022-12-24T06:06:21.125Z,4.13
2022-12-24T06:09:07.938Z,4.19
2022-12-24T06:11:56.442Z,4.14
2022-12-24T06:14:43.151Z,4.11
2022-12-24T06:17:30.009Z,4.16
2022-12-24T06:20:16.958Z,4.19
2022-12-24T06:23:03.392Z,4.16
2022-12-24T06:25:50.759Z,4.19
2022-12-24T06:28:39.775Z,4.27
2022-12-24T06:31:26.318Z,4.21
2022-12-24T06:34:12.970Z,4.31
2022-12-24T06:36:59.743Z,4.27
2022-12-24T06:39:47.186Z,4.04
2022-12-24T06:42:33.867Z,4.25
2022-12-24T06:45:22.234Z,4.24
2022-12-24T06:48:09.011Z,4.34
2022-12-24T06:50:55.633Z,4.38
2022-12-24T06:53:42.578Z,4.37
2022-12-24T06:56:29.425Z,4.37
2022-12-24T06:59:16.211Z,4.34
2022-12-24T07:02:04.642Z,4.34
2022-12-24T07:04:51.883Z,4.31
2022-12-24T07:07:38.779Z,4.42
2022-12-24T07:10:26.570Z,4.40
2022-12-24T07:13:13.335Z,4.42
2022-12-24T07:16:00.342Z,4.36
2022-12-24T07:18:48.811Z,4.32
2022-12-24T07:21:35.927Z,4.43
2022-12-24T07:24:22.868Z,4.33
2022-12-24T07:27:10.563Z,4.36
2022-12-24T07:29:57.277Z,4.32
2022-12-24T07:32:44.557Z,4.28
2022-12-24T07:35:32.300Z,4.26
2022-12-24T07:38:18.995Z,4.26
2022-12-24T07:41:05.923Z,4.27
2022-12-24T07:43:53.548Z,4.27
2022-12-24T07:46:40.716Z,4.28
2022-12-24T07:49:27.144Z,4.27
2022-12-24T07:52:15.920Z,4.30
2022-12-24T07:55:02.667Z,4.27
2022-12-24T07:57:49.403Z,4.31
2022-12-24T08:00:36.342Z,4.29
2022-12-24T08:03:23.361Z,4.35
2022-12-24T08:06:10.608Z,4.32
2022-12-24T08:08:59.135Z,4.35
2022-12-24T08:11:51.696Z,4.40
2022-12-24T08:14:38.903Z,4.43
2022-12-24T08:17:31.994Z,4.40
2022-12-24T08:20:19.066Z,4.39
2022-12-24T08:23:05.685Z,4.37
2022-12-24T08:25:54.216Z,4.31
2022-12-24T08:28:40.869Z,4.34
2022-12-24T08:31:27.758Z,4.33
2022-12-24T08:34:14.607Z,4.27
2022-12-24T08:37:01.366Z,4.23
2022-12-24T08:39:48.139Z,4.26
2022-12-24T08:42:36.361Z,4.31
2022-12-24T08:45:23.501Z,4.36
2022-12-24T08:48:11.397Z,4.36
2022-12-24T08:50:58.088Z,4.47
2022-12-24T08:53:44.919Z,4.41
2022-12-24T08:56:31.654Z,4.41
2022-12-24T08:59:19.968Z,4.46
2022-12-24T09:02:06.700Z,4.53
2022-12-24T09:04:53.297Z,4.60
2022-12-24T09:07:40.029Z,4.48
2022-12-24T09:10:26.973Z,4.45
2022-12-24T09:13:18.308Z,4.52
2022-12-24T09:16:08.020Z,4.57
2022-12-24T09:18:54.356Z,4.53
2022-12-24T09:21:41.342Z,4.64
2022-12-24T09:24:29.184Z,4.75
2022-12-24T09:27:15.998Z,4.65
2022-12-24T09:30:02.712Z,4.58
2022-12-24T09:32:52.350Z,4.57
2022-12-24T09:35:39.373Z,4.67
2022-12-24T09:38:26.366Z,4.73
2022-12-24T09:41:15.132Z,4.64
2022-12-24T09:44:10.987Z,4.72
2022-12-24T09:47:09.837Z,4.57
2022-12-24T09:50:03.078Z,4.66
2022-12-24T09:52:51.609Z,4.66
2022-12-24T09:55:44.270Z,4.35
2022-12-24T09:58:36.334Z,4.75
2022-12-24T10:01:23.005Z,4.72
2022-12-24T10:04:14.527Z,4.74
2022-12-24T10:07:11.553Z,4.87
2022-12-24T10:10:12.321Z,4.84
2022-12-24T10:13:11.470Z,4.74
2022-12-24T10:16:04.498Z,4.73
2022-12-24T10:18:58.229Z,4.83
2022-12-24T10:21:56.593Z,4.86
2022-12-24T10:24:51.233Z,4.81
2022-12-24T10:27:40.946Z,4.83
2022-12-24T10:30:28.777Z,4.78
2022-12-24T10:33:20.558Z,4.84
2022-12-24T10:36:12.668Z,4.93
2022-12-24T10:38:59.941Z,4.85
2022-12-24T10:41:51.169Z,4.76
2022-12-24T10:44:37.565Z,4.95
2022-12-24T10:47:25.715Z,4.91
2022-12-24T10:50:19.571Z,4.82
2022-12-24T10:53:14.393Z,4.67
2022-12-24T10:56:07.108Z,4.68
2022-12-24T10:58:56.425Z,4.70
2022-12-24T11:01:48.509Z,4.81
2022-12-24T11:04:49.844Z,4.78
2022-12-24T11:07:36.669Z,4.89
2022-12-24T11:10:25.718Z,4.80
2022-12-24T11:13:41.171Z,4.86
2022-12-24T11:16:31.427Z,4.94
2022-12-24T11:20:19.943Z,5.02
2022-12-24T11:23:07.358Z,4.99
2022-12-24T11:25:55.911Z,5.21
2022-12-24T11:28:42.590Z,5.04
2022-12-24T11:31:35.883Z,5.05
2022-12-24T11:34:31.042Z,4.98
2022-12-24T11:37:21.623Z,5.03
2022-12-24T11:40:21.219Z,5.02
2022-12-24T11:43:14.962Z,5.11
2022-12-24T11:46:16.269Z,5.07
2022-12-24T11:49:16.548Z,5.05
2022-12-24T11:52:21.949Z,5.07
2022-12-24T11:55:20.148Z,5.00
2022-12-24T11:58:17.813Z,5.02
2022-12-24T12:01:15.730Z,5.03
2022-12-24T12:04:12.783Z,4.99
2022-12-24T12:07:03.084Z,4.91
2022-12-24T12:09:53.177Z,4.92
2022-12-24T12:12:44.421Z,4.72
2022-12-24T12:15:35.276Z,4.98
2022-12-24T12:18:24.940Z,5.11
2022-12-24T12:21:18.213Z,5.21
2022-12-24T12:24:11.197Z,5.09
2022-12-24T12:27:06.254Z,5.12
2022-12-24T12:29:58.798Z,4.99
2022-12-24T12:32:52.220Z,5.14
2022-12-24T12:35:41.935Z,5.25
2022-12-24T12:38:30.800Z,5.21
2022-12-24T12:41:30.781Z,5.22
2022-12-24T12:44:41.794Z,5.21
2022-12-24T12:47:59.305Z,5.26
2022-12-24T12:50:54.239Z,5.13
2022-12-24T12:54:02.468Z,5.17
2022-12-24T12:56:53.795Z,5.22
2022-12-24T12:59:46.150Z,5.27
2022-12-24T13:02:46.699Z,5.17
2022-12-24T13:05:51.061Z,5.07
2022-12-24T13:09:19.335Z,5.16
2022-12-24T13:12:31.076Z,5.22
2022-12-24T13:15:40.658Z,5.32
2022-12-24T13:18:51.074Z,5.39
2022-12-24T13:21:37.785Z,5.30
2022-12-24T13:24:29.007Z,5.27
2022-12-24T13:27:20.420Z,5.36
2022-12-24T13:30:30.935Z,5.36
2022-12-24T13:33:48.807Z,5.35
2022-12-24T13:37:05.735Z,5.42
2022-12-24T13:44:36.756Z,5.38
2022-12-24T13:47:32.270Z,5.73
2022-12-24T13:50:26.099Z,5.47
2022-12-24T13:53:23.548Z,5.47
2022-12-24T13:56:26.808Z,5.40
2022-12-24T13:59:28.602Z,5.47
2022-12-24T14:02:22.697Z,5.41
2022-12-24T14:05:21.875Z,5.41
2022-12-24T14:08:12.682Z,5.41
2022-12-24T14:11:08.347Z,5.36
2022-12-24T14:14:11.553Z,5.38
2022-12-24T14:17:01.057Z,5.47
2022-12-24T14:19:52.190Z,5.42
2022-12-24T14:22:45.306Z,5.51
2022-12-24T14:25:35.008Z,5.38
2022-12-24T14:28:29.877Z,5.45
2022-12-24T14:31:20.395Z,5.42
2022-12-24T14:34:08.795Z,5.66
2022-12-24T14:36:57.523Z,5.67
2022-12-24T14:39:47.507Z,5.61
2022-12-24T14:42:52.626Z,5.45
2022-12-24T14:45:52.904Z,5.41
2022-12-24T14:48:47.065Z,5.40
2022-12-24T14:51:41.113Z,5.39
2022-12-24T14:54:39.806Z,5.37
2022-12-24T14:57:27.651Z,5.38
2022-12-24T15:00:21.344Z,5.39
2022-12-24T15:03:14.216Z,5.38
2022-12-24T15:06:05.321Z,5.37
2022-12-24T15:08:52.160Z,5.41
2022-12-24T15:11:39.257Z,5.37
2022-12-24T15:14:28.508Z,5.35
2022-12-24T15:17:16.480Z,5.35
2022-12-24T15:20:04.718Z,5.32
2022-12-24T15:22:55.142Z,5.32
2022-12-24T15:25:41.589Z,5.34
2022-12-24T15:28:28.400Z,5.33
2022-12-24T15:31:17.084Z,5.27
2022-12-24T15:34:03.703Z,5.32
2022-12-24T15:36:52.240Z,5.21
2022-12-24T15:39:42.290Z,5.16
2022-12-24T15:42:29.515Z,5.16
2022-12-24T15:45:27.108Z,5.10
2022-12-24T15:48:21.212Z,5.06
2022-12-24T15:51:08.391Z,5.04
2022-12-24T15:54:02.788Z,5.14
2022-12-24T15:56:50.908Z,5.09
2022-12-24T15:59:37.585Z,5.05
2022-12-24T16:02:36.748Z,5.09
2022-12-24T16:05:35.847Z,5.12
2022-12-24T16:08:25.836Z,5.04
2022-12-24T16:11:17.523Z,5.03
2022-12-24T16:14:12.176Z,5.17
2022-12-24T16:16:59.300Z,5.05
2022-12-24T16:19:49.632Z,5.11
2022-12-24T16:22:36.755Z,5.20
2022-12-24T16:25:27.120Z,5.15
2022-12-24T16:28:21.830Z,5.21
2022-12-24T16:31:18.866Z,5.26
2022-12-24T16:34:06.852Z,5.48
2022-12-24T16:36:54.191Z,5.36
2022-12-24T16:39:40.789Z,5.72
2022-12-24T16:42:45.495Z,5.80
2022-12-24T16:45:33.159Z,5.98
2022-12-24T16:48:24.369Z,5.99
2022-12-24T16:51:11.095Z,5.98
2022-12-24T16:53:58.036Z,6.08
2022-12-24T16:56:46.892Z,6.11
2022-12-24T16:59:33.795Z,6.24
2022-12-24T17:02:22.449Z,6.13
2022-12-24T17:05:11.505Z,6.10
2022-12-24T17:08:00.489Z,5.99
2022-12-24T17:10:52.178Z,5.85
2022-12-24T17:13:38.908Z,5.93
2022-12-24T17:16:25.575Z,5.81
2022-12-24T17:19:12.315Z,5.78
2022-12-24T17:22:00.401Z,5.73
2022-12-24T17:24:47.341Z,5.71
2022-12-24T17:27:34.169Z,5.79
2022-12-24T17:30:20.972Z,5.70
2022-12-24T17:33:14.143Z,5.74
2022-12-24T17:36:01.211Z,5.60
2022-12-24T17:38:50.077Z,5.45
2022-12-24T17:41:36.542Z,5.45
2022-12-24T17:44:23.298Z,5.37
2022-12-24T17:47:10.032Z,5.46
2022-12-24T17:49:56.771Z,5.54
2022-12-24T17:52:43.559Z,5.54
2022-12-24T17:55:31.593Z,5.52
2022-12-24T17:58:18.412Z,5.46
2022-12-24T18:01:05.699Z,5.48
2022-12-24T18:03:53.819Z,5.58
2022-12-24T18:06:45.590Z,5.69
2022-12-24T18:09:34.036Z,5.62
2022-12-24T18:12:23.201Z,5.56
2022-12-24T18:15:11.089Z,5.46
2022-12-24T18:17:59.318Z,5.35
2022-12-24T18:20:47.082Z,5.30
2022-12-24T18:23:33.933Z,5.34
2022-12-24T18:26:21.424Z,5.30
2022-12-24T18:29:10.712Z,5.16
2022-12-24T18:31:57.584Z,5.07
2022-12-24T18:34:46.121Z,5.19
2022-12-24T18:37:33.400Z,5.10
2022-12-24T18:40:20.650Z,5.09
2022-12-24T18:43:07.233Z,5.16
2022-12-24T18:45:55.842Z,5.21
2022-12-24T18:48:44.689Z,5.01
2022-12-24T18:51:34.378Z,4.96
2022-12-24T18:54:20.956Z,4.83
2022-12-24T18:57:08.406Z,4.81
2022-12-24T18:59:56.023Z,4.84
2022-12-24T19:02:44.282Z,4.88
2022-12-24T19:05:31.720Z,4.83
2022-12-24T19:08:47.255Z,4.89
2022-12-24T19:11:24.726Z,4.85
2022-12-24T19:14:13.491Z,4.96
2022-12-24T19:17:00.101Z,4.84
2022-12-24T19:19:48.223Z,4.96
2022-12-24T19:22:35.113Z,5.03
2022-12-24T19:25:21.743Z,5.09
2022-12-24T19:28:09.798Z,5.13
2022-12-24T19:30:56.483Z,5.07
2022-12-24T19:33:44.928Z,5.20
2022-12-24T19:36:34.009Z,5.23
2022-12-24T19:39:20.575Z,5.32
2022-12-24T19:42:07.296Z,5.36
2022-12-24T19:44:54.070Z,5.37
2022-12-24T19:47:40.906Z,5.56
2022-12-24T19:50:27.588Z,5.52
2022-12-24T19:53:15.597Z,5.37
2022-12-24T19:56:02.575Z,5.56
2022-12-24T19:58:49.093Z,5.20
2022-12-24T20:01:36.598Z,5.53
2022-12-24T20:04:22.957Z,5.49
2022-12-24T20:07:09.734Z,5.53
2022-12-24T20:09:57.877Z,5.71
2022-12-24T20:12:44.701Z,5.62
2022-12-24T20:15:31.518Z,5.56
2022-12-24T20:18:18.297Z,5.58
2022-12-24T20:21:08.000Z,5.50
2022-12-24T20:23:55.171Z,5.59
2022-12-24T20:26:43.080Z,5.58
2022-12-24T20:29:30.020Z,5.40
2022-12-24T20:32:16.750Z,5.44
2022-12-24T20:35:03.658Z,5.66
2022-12-24T20:37:50.696Z,5.49
2022-12-24T20:40:41.291Z,5.67
2022-12-24T20:43:34.491Z,5.63
2022-12-24T20:46:24.330Z,5.57
2022-12-24T20:49:12.397Z,5.54
2022-12-24T20:51:58.997Z,5.54
2022-12-24T20:54:45.829Z,5.57
2022-12-24T20:57:36.294Z,5.47
2022-12-24T21:00:25.260Z,5.39
2022-12-24T21:03:12.139Z,5.55
2022-12-24T21:05:58.898Z,5.39
2022-12-24T21:08:45.713Z,5.48
2022-12-24T21:11:50.948Z,5.57
2022-12-24T21:14:37.845Z,5.65
2022-12-24T21:17:26.218Z,5.74
2022-12-24T21:20:14.085Z,5.74
2022-12-24T21:23:01.626Z,5.79
2022-12-24T21:25:58.561Z,5.91
2022-12-24T21:28:46.180Z,5.97
2022-12-24T21:31:32.777Z,6.06
2022-12-24T21:34:20.871Z,6.17
2022-12-24T21:37:07.570Z,6.28
2022-12-24T21:39:54.329Z,6.29
2022-12-24T21:42:41.225Z,6.24
2022-12-24T21:45:27.928Z,6.19
2022-12-24T21:48:28.506Z,6.32
2022-12-24T21:51:16.414Z,6.41
2022-12-24T21:54:20.399Z,6.46
2022-12-24T21:57:27.075Z,6.53
2022-12-24T22:00:26.640Z,6.47
2022-12-24T22:03:14.070Z,6.50
2022-12-24T22:06:00.833Z,6.46
2022-12-24T22:09:06.043Z,6.55
2022-12-24T22:11:54.904Z,6.61
2022-12-24T22:14:41.612Z,6.50
2022-12-24T22:17:29.084Z,6.51
2022-12-24T22:20:15.898Z,6.53
2022-12-24T22:23:02.528Z,6.62
2022-12-24T22:25:50.583Z,6.44
2022-12-24T22:28:37.978Z,6.62
2022-12-24T22:31:25.212Z,6.54
2022-12-24T22:34:11.621Z,6.60
2022-12-24T22:36:59.011Z,6.62
2022-12-24T22:39:45.926Z,6.61
2022-12-24T22:42:34.647Z,6.63
2022-12-24T22:45:22.756Z,6.71
2022-12-24T22:48:09.798Z,6.56
2022-12-24T22:50:56.530Z,6.63
2022-12-24T22:53:44.546Z,6.53
2022-12-24T22:56:35.510Z,6.62
2022-12-24T22:59:26.785Z,6.67
2022-12-24T23:02:13.708Z,6.59
2022-12-24T23:05:00.295Z,6.66
2022-12-24T23:07:47.069Z,6.68
2022-12-24T23:10:34.069Z,6.63
2022-12-24T23:13:38.046Z,6.66
2022-12-24T23:16:27.386Z,6.52
2022-12-24T23:19:14.052Z,6.48
2022-12-24T23:22:01.452Z,6.59
2022-12-24T23:24:48.256Z,6.69
2022-12-24T23:27:34.964Z,6.73
2022-12-24T23:30:21.737Z,6.82
2022-12-24T23:33:09.883Z,6.73
2022-12-24T23:35:56.970Z,6.76
2022-12-24T23:38:43.629Z,6.71
2022-12-24T23:41:30.327Z,6.69
2022-12-24T23:44:17.209Z,6.65
2022-12-24T23:47:04.063Z,6.73
2022-12-24T23:49:52.156Z,6.72
2022-12-24T23:52:39.015Z,6.58
2022-12-24T23:55:25.623Z,6.58
2022-12-24T23:58:15.305Z,6.69
